sensor_id;sensor_type;location;lat;lon;timestamp;temperature;humidity
7046;DHT22;3564;53.326;10.356;2023-03-01T00:01:27;3.40;90.70
7046;DHT22;3564;53.326;10.356;2023-03-01T00:03:53;3.40;90.70
7046;DHT22;3564;53.326;10.356;2023-03-01T00:06:20;3.50;90.90
7046;DHT22;3564;53.326;10.356;2023-03-01T00:08:47;3.50;91.00
7046;DHT22;3564;53.326;10.356;2023-03-01T00:13:38;3.40;90.80
7046;DHT22;3564;53.326;10.356;2023-03-01T00:16:09;3.40;91.00
7046;DHT22;3564;53.326;10.356;2023-03-01T00:18:35;3.40;91.00
7046;DHT22;3564;53.326;10.356;2023-03-01T00:21:01;3.40;91.00
7046;DHT22;3564;53.326;10.356;2023-03-01T00:25:53;3.40;95.40
7046;DHT22;3564;53.326;10.356;2023-03-01T00:28:19;3.30;95.60
7046;DHT22;3564;53.326;10.356;2023-03-01T00:30:46;3.30;95.80
7046;DHT22;3564;53.326;10.356;2023-03-01T00:33:12;3.30;95.60
7046;DHT22;3564;53.326;10.356;2023-03-01T00:35:37;3.30;95.60
7046;DHT22;3564;53.326;10.356;2023-03-01T00:38:04;3.20;95.60
7046;DHT22;3564;53.326;10.356;2023-03-01T00:40:32;3.20;95.80
7046;DHT22;3564;53.326;10.356;2023-03-01T00:42:58;3.20;95.80
7046;DHT22;3564;53.326;10.356;2023-03-01T00:45:24;3.20;95.80
7046;DHT22;3564;53.326;10.356;2023-03-01T00:47:51;3.20;95.80
7046;DHT22;3564;53.326;10.356;2023-03-01T00:50:16;3.20;95.60
7046;DHT22;3564;53.326;10.356;2023-03-01T00:52:42;3.20;95.70
7046;DHT22;3564;53.326;10.356;2023-03-01T00:55:08;3.20;95.40
7046;DHT22;3564;53.326;10.356;2023-03-01T00:57:34;3.20;95.70
7046;DHT22;3564;53.326;10.356;2023-03-01T01:00:00;3.20;95.90
7046;DHT22;3564;53.326;10.356;2023-03-01T01:02:25;3.10;96.00
7046;DHT22;3564;53.326;10.356;2023-03-01T01:04:51;3.10;96.20
7046;DHT22;3564;53.326;10.356;2023-03-01T01:07:17;3.10;96.40
7046;DHT22;3564;53.326;10.356;2023-03-01T01:09:43;3.10;96.70
7046;DHT22;3564;53.326;10.356;2023-03-01T01:12:08;3.00;97.10
7046;DHT22;3564;53.326;10.356;2023-03-01T01:14:34;3.00;90.50
7046;DHT22;3564;53.326;10.356;2023-03-01T01:17:00;2.90;90.60
7046;DHT22;3564;53.326;10.356;2023-03-01T01:19:26;2.90;90.90
7046;DHT22;3564;53.326;10.356;2023-03-01T01:21:52;2.90;90.80
7046;DHT22;3564;53.326;10.356;2023-03-01T01:24:18;2.90;90.70
7046;DHT22;3564;53.326;10.356;2023-03-01T01:26:45;2.80;90.60
7046;DHT22;3564;53.326;10.356;2023-03-01T01:29:12;2.80;90.80
7046;DHT22;3564;53.326;10.356;2023-03-01T01:31:40;2.80;90.80
7046;DHT22;3564;53.326;10.356;2023-03-01T01:34:07;2.80;90.90
7046;DHT22;3564;53.326;10.356;2023-03-01T01:36:34;2.80;90.90
7046;DHT22;3564;53.326;10.356;2023-03-01T01:39:00;2.70;90.60
7046;DHT22;3564;53.326;10.356;2023-03-01T01:41:27;2.70;90.70
7046;DHT22;3564;53.326;10.356;2023-03-01T01:44:10;2.60;90.90
7046;DHT22;3564;53.326;10.356;2023-03-01T01:46:39;2.70;91.10
7046;DHT22;3564;53.326;10.356;2023-03-01T01:49:17;2.60;91.00
7046;DHT22;3564;53.326;10.356;2023-03-01T01:51:47;2.60;90.90
7046;DHT22;3564;53.326;10.356;2023-03-01T01:54:27;2.60;91.00
7046;DHT22;3564;53.326;10.356;2023-03-01T01:56:57;2.60;91.10
7046;DHT22;3564;53.326;10.356;2023-03-01T01:59:25;2.60;91.10
7046;DHT22;3564;53.326;10.356;2023-03-01T02:01:52;2.50;91.00
7046;DHT22;3564;53.326;10.356;2023-03-01T02:04:18;2.50;91.00
7046;DHT22;3564;53.326;10.356;2023-03-01T02:06:49;2.50;91.10
7046;DHT22;3564;53.326;10.356;2023-03-01T02:09:19;2.50;91.10
7046;DHT22;3564;53.326;10.356;2023-03-01T02:11:47;2.50;91.20
7046;DHT22;3564;53.326;10.356;2023-03-01T02:14:15;2.50;91.30
7046;DHT22;3564;53.326;10.356;2023-03-01T02:16:41;2.50;91.30
7046;DHT22;3564;53.326;10.356;2023-03-01T02:19:13;2.50;91.10
7046;DHT22;3564;53.326;10.356;2023-03-01T02:22:03;2.40;91.00
7046;DHT22;3564;53.326;10.356;2023-03-01T02:27:15;2.30;91.40
7046;DHT22;3564;53.326;10.356;2023-03-01T02:29:42;2.40;91.60
7046;DHT22;3564;53.326;10.356;2023-03-01T02:32:10;2.40;91.60
7046;DHT22;3564;53.326;10.356;2023-03-01T02:34:38;2.40;91.60
7046;DHT22;3564;53.326;10.356;2023-03-01T02:37:10;2.40;91.50
7046;DHT22;3564;53.326;10.356;2023-03-01T02:39:42;2.40;91.60
7046;DHT22;3564;53.326;10.356;2023-03-01T02:42:12;2.40;91.60
7046;DHT22;3564;53.326;10.356;2023-03-01T02:44:38;2.40;91.50
7046;DHT22;3564;53.326;10.356;2023-03-01T02:47:05;2.40;91.50
7046;DHT22;3564;53.326;10.356;2023-03-01T02:49:33;2.30;91.50
7046;DHT22;3564;53.326;10.356;2023-03-01T02:52:34;2.40;91.50
7046;DHT22;3564;53.326;10.356;2023-03-01T02:55:08;2.30;91.30
7046;DHT22;3564;53.326;10.356;2023-03-01T02:57:37;2.30;91.40
7046;DHT22;3564;53.326;10.356;2023-03-01T03:00:15;2.30;91.50
7046;DHT22;3564;53.326;10.356;2023-03-01T03:02:46;2.30;91.50
7046;DHT22;3564;53.326;10.356;2023-03-01T03:07:42;2.20;91.50
7046;DHT22;3564;53.326;10.356;2023-03-01T03:10:16;2.10;91.40
7046;DHT22;3564;53.326;10.356;2023-03-01T03:12:42;2.10;91.50
7046;DHT22;3564;53.326;10.356;2023-03-01T03:15:10;2.10;91.60
7046;DHT22;3564;53.326;10.356;2023-03-01T03:17:39;2.10;91.60
7046;DHT22;3564;53.326;10.356;2023-03-01T03:20:08;2.10;91.60
7046;DHT22;3564;53.326;10.356;2023-03-01T03:22:37;2.10;91.50
7046;DHT22;3564;53.326;10.356;2023-03-01T03:25:03;2.10;91.50
7046;DHT22;3564;53.326;10.356;2023-03-01T03:27:29;2.10;91.60
7046;DHT22;3564;53.326;10.356;2023-03-01T03:29:57;2.10;91.70
7046;DHT22;3564;53.326;10.356;2023-03-01T03:32:23;2.10;91.70
7046;DHT22;3564;53.326;10.356;2023-03-01T03:34:49;2.10;91.70
7046;DHT22;3564;53.326;10.356;2023-03-01T03:37:14;2.10;91.50
7046;DHT22;3564;53.326;10.356;2023-03-01T03:40:00;2.10;91.60
7046;DHT22;3564;53.326;10.356;2023-03-01T03:42:25;2.00;91.70
7046;DHT22;3564;53.326;10.356;2023-03-01T03:44:51;2.00;91.70
7046;DHT22;3564;53.326;10.356;2023-03-01T03:47:16;2.00;91.70
7046;DHT22;3564;53.326;10.356;2023-03-01T03:49:42;2.00;91.70
7046;DHT22;3564;53.326;10.356;2023-03-01T03:52:08;2.00;91.70
7046;DHT22;3564;53.326;10.356;2023-03-01T03:54:39;2.00;91.60
7046;DHT22;3564;53.326;10.356;2023-03-01T03:57:06;2.00;91.60
7046;DHT22;3564;53.326;10.356;2023-03-01T03:59:32;2.00;91.80
7046;DHT22;3564;53.326;10.356;2023-03-01T04:01:57;2.00;91.90
7046;DHT22;3564;53.326;10.356;2023-03-01T04:04:23;2.00;91.80
7046;DHT22;3564;53.326;10.356;2023-03-01T04:06:48;2.00;91.80
7046;DHT22;3564;53.326;10.356;2023-03-01T04:09:14;1.90;91.80
7046;DHT22;3564;53.326;10.356;2023-03-01T04:11:40;1.90;92.20
7046;DHT22;3564;53.326;10.356;2023-03-01T04:14:05;1.90;92.00
7046;DHT22;3564;53.326;10.356;2023-03-01T04:16:31;1.90;92.10
7046;DHT22;3564;53.326;10.356;2023-03-01T04:18:56;1.90;92.20
7046;DHT22;3564;53.326;10.356;2023-03-01T04:21:25;1.90;92.20
7046;DHT22;3564;53.326;10.356;2023-03-01T04:23:50;1.90;92.60
7046;DHT22;3564;53.326;10.356;2023-03-01T04:26:19;1.90;92.40
7046;DHT22;3564;53.326;10.356;2023-03-01T04:28:45;1.90;92.30
7046;DHT22;3564;53.326;10.356;2023-03-01T04:31:16;2.00;92.20
7046;DHT22;3564;53.326;10.356;2023-03-01T04:33:51;1.90;92.10
7046;DHT22;3564;53.326;10.356;2023-03-01T04:36:18;1.90;92.00
7046;DHT22;3564;53.326;10.356;2023-03-01T04:38:45;1.90;92.10
7046;DHT22;3564;53.326;10.356;2023-03-01T04:41:15;1.90;92.10
7046;DHT22;3564;53.326;10.356;2023-03-01T04:43:41;1.90;92.10
7046;DHT22;3564;53.326;10.356;2023-03-01T04:46:09;1.90;92.00
7046;DHT22;3564;53.326;10.356;2023-03-01T04:48:36;1.90;92.10
7046;DHT22;3564;53.326;10.356;2023-03-01T04:51:04;1.90;92.10
7046;DHT22;3564;53.326;10.356;2023-03-01T04:53:31;1.80;92.10
7046;DHT22;3564;53.326;10.356;2023-03-01T04:55:58;1.90;92.30
7046;DHT22;3564;53.326;10.356;2023-03-01T04:58:26;1.90;92.30
7046;DHT22;3564;53.326;10.356;2023-03-01T05:00:52;1.90;92.30
7046;DHT22;3564;53.326;10.356;2023-03-01T05:03:18;1.90;92.60
7046;DHT22;3564;53.326;10.356;2023-03-01T05:05:46;1.90;92.70
7046;DHT22;3564;53.326;10.356;2023-03-01T05:08:13;1.90;92.80
7046;DHT22;3564;53.326;10.356;2023-03-01T05:10:49;1.90;92.90
7046;DHT22;3564;53.326;10.356;2023-03-01T05:13:15;2.00;93.00
7046;DHT22;3564;53.326;10.356;2023-03-01T05:15:55;2.00;93.20
7046;DHT22;3564;53.326;10.356;2023-03-01T05:18:21;2.00;93.40
7046;DHT22;3564;53.326;10.356;2023-03-01T05:21:10;2.10;93.40
7046;DHT22;3564;53.326;10.356;2023-03-01T05:23:36;2.10;93.40
7046;DHT22;3564;53.326;10.356;2023-03-01T05:26:03;2.10;93.50
7046;DHT22;3564;53.326;10.356;2023-03-01T05:28:30;2.20;93.70
7046;DHT22;3564;53.326;10.356;2023-03-01T05:30:58;2.20;93.70
7046;DHT22;3564;53.326;10.356;2023-03-01T05:33:25;2.30;93.80
7046;DHT22;3564;53.326;10.356;2023-03-01T05:35:51;2.30;93.80
7046;DHT22;3564;53.326;10.356;2023-03-01T05:38:19;2.40;93.80
7046;DHT22;3564;53.326;10.356;2023-03-01T05:40:47;2.40;93.80
7046;DHT22;3564;53.326;10.356;2023-03-01T05:43:15;2.40;93.70
7046;DHT22;3564;53.326;10.356;2023-03-01T05:45:41;2.50;93.80
7046;DHT22;3564;53.326;10.356;2023-03-01T05:48:08;2.50;93.70
7046;DHT22;3564;53.326;10.356;2023-03-01T05:50:38;2.50;93.80
7046;DHT22;3564;53.326;10.356;2023-03-01T05:55:35;2.60;94.00
7046;DHT22;3564;53.326;10.356;2023-03-01T05:58:04;2.60;94.10
7046;DHT22;3564;53.326;10.356;2023-03-01T06:00:35;2.70;94.10
7046;DHT22;3564;53.326;10.356;2023-03-01T06:03:01;2.70;94.00
7046;DHT22;3564;53.326;10.356;2023-03-01T06:05:27;2.70;94.00
7046;DHT22;3564;53.326;10.356;2023-03-01T06:07:53;2.80;94.00
7046;DHT22;3564;53.326;10.356;2023-03-01T06:10:20;2.80;94.00
7046;DHT22;3564;53.326;10.356;2023-03-01T06:12:46;2.80;94.10
7046;DHT22;3564;53.326;10.356;2023-03-01T06:15:14;2.80;94.10
7046;DHT22;3564;53.326;10.356;2023-03-01T06:17:42;2.90;94.20
7046;DHT22;3564;53.326;10.356;2023-03-01T06:22:39;2.90;94.30
7046;DHT22;3564;53.326;10.356;2023-03-01T06:25:05;3.00;94.40
7046;DHT22;3564;53.326;10.356;2023-03-01T06:27:31;3.00;94.30
7046;DHT22;3564;53.326;10.356;2023-03-01T06:29:57;3.00;94.40
7046;DHT22;3564;53.326;10.356;2023-03-01T06:32:24;3.00;94.30
7046;DHT22;3564;53.326;10.356;2023-03-01T06:34:50;3.00;94.30
7046;DHT22;3564;53.326;10.356;2023-03-01T06:37:16;3.00;94.40
7046;DHT22;3564;53.326;10.356;2023-03-01T06:39:41;3.10;94.50
7046;DHT22;3564;53.326;10.356;2023-03-01T06:42:08;3.10;94.40
7046;DHT22;3564;53.326;10.356;2023-03-01T06:44:35;3.10;94.40
7046;DHT22;3564;53.326;10.356;2023-03-01T06:47:01;3.10;94.50
7046;DHT22;3564;53.326;10.356;2023-03-01T06:49:27;3.20;94.60
7046;DHT22;3564;53.326;10.356;2023-03-01T06:51:54;3.20;94.60
7046;DHT22;3564;53.326;10.356;2023-03-01T06:54:19;3.20;94.60
7046;DHT22;3564;53.326;10.356;2023-03-01T06:56:47;3.30;94.70
7046;DHT22;3564;53.326;10.356;2023-03-01T06:59:13;3.30;94.80
7046;DHT22;3564;53.326;10.356;2023-03-01T07:01:39;3.30;94.80
7046;DHT22;3564;53.326;10.356;2023-03-01T07:04:04;3.40;94.90
7046;DHT22;3564;53.326;10.356;2023-03-01T07:06:30;3.40;94.80
7046;DHT22;3564;53.326;10.356;2023-03-01T07:08:56;3.40;94.70
7046;DHT22;3564;53.326;10.356;2023-03-01T07:11:21;3.40;94.70
7046;DHT22;3564;53.326;10.356;2023-03-01T07:13:47;3.40;94.60
7046;DHT22;3564;53.326;10.356;2023-03-01T07:16:13;3.40;94.60
7046;DHT22;3564;53.326;10.356;2023-03-01T07:18:41;3.40;94.60
7046;DHT22;3564;53.326;10.356;2023-03-01T07:21:08;3.40;94.80
7046;DHT22;3564;53.326;10.356;2023-03-01T07:23:35;3.50;94.90
7046;DHT22;3564;53.326;10.356;2023-03-01T07:26:00;3.50;95.00
7046;DHT22;3564;53.326;10.356;2023-03-01T07:28:26;3.60;95.10
7046;DHT22;3564;53.326;10.356;2023-03-01T07:30:52;3.60;95.20
7046;DHT22;3564;53.326;10.356;2023-03-01T07:33:18;3.70;95.30
7046;DHT22;3564;53.326;10.356;2023-03-01T07:35:44;3.80;95.30
7046;DHT22;3564;53.326;10.356;2023-03-01T07:38:09;3.80;95.20
7046;DHT22;3564;53.326;10.356;2023-03-01T07:40:35;3.80;95.30
7046;DHT22;3564;53.326;10.356;2023-03-01T07:43:00;3.80;95.20
7046;DHT22;3564;53.326;10.356;2023-03-01T07:45:27;3.90;95.20
7046;DHT22;3564;53.326;10.356;2023-03-01T07:47:52;4.00;95.30
7046;DHT22;3564;53.326;10.356;2023-03-01T07:50:19;4.00;95.20
7046;DHT22;3564;53.326;10.356;2023-03-01T07:52:46;4.00;95.00
7046;DHT22;3564;53.326;10.356;2023-03-01T07:55:12;4.00;94.90
7046;DHT22;3564;53.326;10.356;2023-03-01T07:57:38;4.10;95.00
7046;DHT22;3564;53.326;10.356;2023-03-01T08:00:08;4.10;95.20
7046;DHT22;3564;53.326;10.356;2023-03-01T08:02:34;4.20;95.20
7046;DHT22;3564;53.326;10.356;2023-03-01T08:05:00;4.20;95.20
7046;DHT22;3564;53.326;10.356;2023-03-01T08:07:26;4.20;95.30
7046;DHT22;3564;53.326;10.356;2023-03-01T08:09:51;4.30;95.40
7046;DHT22;3564;53.326;10.356;2023-03-01T08:12:17;4.30;95.20
7046;DHT22;3564;53.326;10.356;2023-03-01T08:14:42;4.40;95.20
7046;DHT22;3564;53.326;10.356;2023-03-01T08:17:08;4.40;95.10
7046;DHT22;3564;53.326;10.356;2023-03-01T08:19:34;4.50;95.20
7046;DHT22;3564;53.326;10.356;2023-03-01T08:22:02;4.50;95.30
7046;DHT22;3564;53.326;10.356;2023-03-01T08:24:28;4.60;95.20
7046;DHT22;3564;53.326;10.356;2023-03-01T08:26:54;4.60;95.20
7046;DHT22;3564;53.326;10.356;2023-03-01T08:29:20;4.70;95.30
7046;DHT22;3564;53.326;10.356;2023-03-01T08:31:45;4.70;95.50
7046;DHT22;3564;53.326;10.356;2023-03-01T08:34:14;4.80;95.50
7046;DHT22;3564;53.326;10.356;2023-03-01T08:36:42;4.90;95.50
7046;DHT22;3564;53.326;10.356;2023-03-01T08:39:10;5.00;95.40
7046;DHT22;3564;53.326;10.356;2023-03-01T08:41:36;5.00;95.50
7046;DHT22;3564;53.326;10.356;2023-03-01T08:44:02;5.10;95.70
7046;DHT22;3564;53.326;10.356;2023-03-01T08:46:29;5.10;95.60
7046;DHT22;3564;53.326;10.356;2023-03-01T08:48:55;5.20;95.40
7046;DHT22;3564;53.326;10.356;2023-03-01T08:51:22;5.30;95.10
7046;DHT22;3564;53.326;10.356;2023-03-01T08:53:48;5.30;94.90
7046;DHT22;3564;53.326;10.356;2023-03-01T08:56:14;5.40;94.80
7046;DHT22;3564;53.326;10.356;2023-03-01T08:58:46;5.40;94.70
7046;DHT22;3564;53.326;10.356;2023-03-01T09:01:15;5.40;94.70
7046;DHT22;3564;53.326;10.356;2023-03-01T09:03:41;5.50;94.60
7046;DHT22;3564;53.326;10.356;2023-03-01T09:06:08;5.60;94.70
7046;DHT22;3564;53.326;10.356;2023-03-01T09:08:35;5.60;94.60
7046;DHT22;3564;53.326;10.356;2023-03-01T09:11:06;5.70;94.60
7046;DHT22;3564;53.326;10.356;2023-03-01T09:13:33;5.80;94.50
7046;DHT22;3564;53.326;10.356;2023-03-01T09:16:01;5.80;94.60
7046;DHT22;3564;53.326;10.356;2023-03-01T09:18:27;5.80;94.60
7046;DHT22;3564;53.326;10.356;2023-03-01T09:20:52;5.90;94.70
7046;DHT22;3564;53.326;10.356;2023-03-01T09:23:20;5.90;94.80
7046;DHT22;3564;53.326;10.356;2023-03-01T09:25:47;6.00;94.80
7046;DHT22;3564;53.326;10.356;2023-03-01T09:28:12;6.10;94.70
7046;DHT22;3564;53.326;10.356;2023-03-01T09:30:38;6.20;94.70
7046;DHT22;3564;53.326;10.356;2023-03-01T09:33:03;6.30;94.60
7046;DHT22;3564;53.326;10.356;2023-03-01T09:35:29;6.30;94.10
7046;DHT22;3564;53.326;10.356;2023-03-01T09:37:55;6.40;93.80
7046;DHT22;3564;53.326;10.356;2023-03-01T09:40:23;6.40;93.50
7046;DHT22;3564;53.326;10.356;2023-03-01T09:43:07;6.50;93.30
7046;DHT22;3564;53.326;10.356;2023-03-01T09:45:40;6.60;92.90
7046;DHT22;3564;53.326;10.356;2023-03-01T09:48:14;6.60;92.60
7046;DHT22;3564;53.326;10.356;2023-03-01T09:50:43;6.70;92.30
7046;DHT22;3564;53.326;10.356;2023-03-01T09:53:21;6.70;92.20
7046;DHT22;3564;53.326;10.356;2023-03-01T09:56:04;6.70;92.10
7046;DHT22;3564;53.326;10.356;2023-03-01T10:09:42;7.00;92.30
7046;DHT22;3564;53.326;10.356;2023-03-01T10:12:35;7.10;92.50
7046;DHT22;3564;53.326;10.356;2023-03-01T10:17:51;7.30;92.60
7046;DHT22;3564;53.326;10.356;2023-03-01T10:20:23;7.50;92.70
7046;DHT22;3564;53.326;10.356;2023-03-01T10:22:50;7.60;92.70
7046;DHT22;3564;53.326;10.356;2023-03-01T10:28:20;7.70;93.90
7046;DHT22;3564;53.326;10.356;2023-03-01T10:30:54;7.80;95.40
7046;DHT22;3564;53.326;10.356;2023-03-01T10:33:31;7.90;94.20
7046;DHT22;3564;53.326;10.356;2023-03-01T10:35:58;7.90;93.30
7046;DHT22;3564;53.326;10.356;2023-03-01T10:38:23;8.00;92.80
7046;DHT22;3564;53.326;10.356;2023-03-01T10:41:00;8.10;92.80
7046;DHT22;3564;53.326;10.356;2023-03-01T10:43:48;8.20;92.70
7046;DHT22;3564;53.326;10.356;2023-03-01T10:46:29;8.30;92.60
7046;DHT22;3564;53.326;10.356;2023-03-01T10:49:18;8.50;92.80
7046;DHT22;3564;53.326;10.356;2023-03-01T10:51:46;8.60;92.90
7046;DHT22;3564;53.326;10.356;2023-03-01T10:54:17;8.70;93.00
7046;DHT22;3564;53.326;10.356;2023-03-01T10:56:49;8.90;93.00
7046;DHT22;3564;53.326;10.356;2023-03-01T10:59:26;9.00;93.00
7046;DHT22;3564;53.326;10.356;2023-03-01T11:04:33;9.20;92.80
7046;DHT22;3564;53.326;10.356;2023-03-01T11:07:00;9.30;92.80
7046;DHT22;3564;53.326;10.356;2023-03-01T11:09:26;9.30;92.90
7046;DHT22;3564;53.326;10.356;2023-03-01T11:11:59;9.40;93.00
7046;DHT22;3564;53.326;10.356;2023-03-01T11:14:39;9.50;92.90
7046;DHT22;3564;53.326;10.356;2023-03-01T11:17:19;9.60;92.80
7046;DHT22;3564;53.326;10.356;2023-03-01T11:20:00;9.60;92.80
7046;DHT22;3564;53.326;10.356;2023-03-01T11:22:27;9.70;92.90
7046;DHT22;3564;53.326;10.356;2023-03-01T11:24:55;9.80;93.00
7046;DHT22;3564;53.326;10.356;2023-03-01T11:27:38;9.90;93.10
7046;DHT22;3564;53.326;10.356;2023-03-01T11:35:35;10.10;92.80
7046;DHT22;3564;53.326;10.356;2023-03-01T11:40:52;10.30;92.70
7046;DHT22;3564;53.326;10.356;2023-03-01T11:45:58;10.50;92.90
7046;DHT22;3564;53.326;10.356;2023-03-01T11:48:33;10.60;93.10
7046;DHT22;3564;53.326;10.356;2023-03-01T11:56:53;10.90;93.10
7046;DHT22;3564;53.326;10.356;2023-03-01T12:08:03;11.10;92.70
7046;DHT22;3564;53.326;10.356;2023-03-01T12:10:57;11.10;92.80
7046;DHT22;3564;53.326;10.356;2023-03-01T12:13:59;11.20;95.10
7046;DHT22;3564;53.326;10.356;2023-03-01T12:16:38;11.30;96.10
7046;DHT22;3564;53.326;10.356;2023-03-01T12:37:36;11.50;93.00
7046;DHT22;3564;53.326;10.356;2023-03-01T12:49:02;11.70;92.80
7046;DHT22;3564;53.326;10.356;2023-03-01T12:54:51;11.80;92.70
7046;DHT22;3564;53.326;10.356;2023-03-01T13:00:40;11.80;92.80
7046;DHT22;3564;53.326;10.356;2023-03-01T13:03:30;11.90;92.90
7046;DHT22;3564;53.326;10.356;2023-03-01T13:06:07;11.90;93.00
7046;DHT22;3564;53.326;10.356;2023-03-01T13:08:49;12.00;93.10
7046;DHT22;3564;53.326;10.356;2023-03-01T13:11:20;12.10;92.90
7046;DHT22;3564;53.326;10.356;2023-03-01T13:13:46;12.10;92.40
7046;DHT22;3564;53.326;10.356;2023-03-01T13:19:15;12.20;92.20
7046;DHT22;3564;53.326;10.356;2023-03-01T13:21:45;12.30;92.40
7046;DHT22;3564;53.326;10.356;2023-03-01T13:24:25;12.30;92.40
7046;DHT22;3564;53.326;10.356;2023-03-01T13:29:48;12.40;92.40
7046;DHT22;3564;53.326;10.356;2023-03-01T13:32:31;12.50;92.30
7046;DHT22;3564;53.326;10.356;2023-03-01T13:35:03;12.50;92.20
7046;DHT22;3564;53.326;10.356;2023-03-01T13:37:48;12.60;92.10
7046;DHT22;3564;53.326;10.356;2023-03-01T13:42:54;12.70;92.20
7046;DHT22;3564;53.326;10.356;2023-03-01T13:46:02;12.80;91.90
7046;DHT22;3564;53.326;10.356;2023-03-01T13:48:18;12.80;91.80
7046;DHT22;3564;53.326;10.356;2023-03-01T13:50:51;12.90;91.80
7046;DHT22;3564;53.326;10.356;2023-03-01T13:53:20;13.00;91.30
7046;DHT22;3564;53.326;10.356;2023-03-01T13:55:51;13.00;91.10
7046;DHT22;3564;53.326;10.356;2023-03-01T13:58:31;13.10;91.30
7046;DHT22;3564;53.326;10.356;2023-03-01T14:01:04;13.20;91.40
7046;DHT22;3564;53.326;10.356;2023-03-01T14:03:32;13.30;91.30
7046;DHT22;3564;53.326;10.356;2023-03-01T14:06:20;13.30;91.10
7046;DHT22;3564;53.326;10.356;2023-03-01T14:08:48;13.40;91.20
7046;DHT22;3564;53.326;10.356;2023-03-01T14:19:35;13.70;90.90
7046;DHT22;3564;53.326;10.356;2023-03-01T14:22:16;13.90;90.60
7046;DHT22;3564;53.326;10.356;2023-03-01T14:24:52;14.10;90.60
7046;DHT22;3564;53.326;10.356;2023-03-01T14:27:19;14.30;90.40
7046;DHT22;3564;53.326;10.356;2023-03-01T14:32:32;14.80;99.90
7046;DHT22;3564;53.326;10.356;2023-03-01T14:39:53;15.90;99.90
7046;DHT22;3564;53.326;10.356;2023-03-01T14:42:22;16.30;85.80
7046;DHT22;3564;53.326;10.356;2023-03-01T14:44:51;16.50;85.50
7046;DHT22;3564;53.326;10.356;2023-03-01T14:47:36;16.80;88.30
7046;DHT22;3564;53.326;10.356;2023-03-01T14:50:15;17.00;83.80
7046;DHT22;3564;53.326;10.356;2023-03-01T14:52:46;17.10;83.50
7046;DHT22;3564;53.326;10.356;2023-03-01T14:55:18;17.30;83.20
7046;DHT22;3564;53.326;10.356;2023-03-01T14:57:46;17.60;83.50
7046;DHT22;3564;53.326;10.356;2023-03-01T15:00:27;18.00;83.00
7046;DHT22;3564;53.326;10.356;2023-03-01T15:02:55;18.60;82.80
7046;DHT22;3564;53.326;10.356;2023-03-01T15:05:32;19.30;82.00
7046;DHT22;3564;53.326;10.356;2023-03-01T15:08:00;19.90;79.20
7046;DHT22;3564;53.326;10.356;2023-03-01T15:10:32;20.20;78.30
7046;DHT22;3564;53.326;10.356;2023-03-01T15:13:32;20.50;77.70
7046;DHT22;3564;53.326;10.356;2023-03-01T15:16:12;20.90;76.50
7046;DHT22;3564;53.326;10.356;2023-03-01T15:18:54;20.90;75.30
7046;DHT22;3564;53.326;10.356;2023-03-01T15:21:25;21.00;74.60
7046;DHT22;3564;53.326;10.356;2023-03-01T15:23:55;21.10;74.20
7046;DHT22;3564;53.326;10.356;2023-03-01T15:26:31;21.20;73.70
7046;DHT22;3564;53.326;10.356;2023-03-01T15:28:59;21.10;73.10
7046;DHT22;3564;53.326;10.356;2023-03-01T15:31:28;20.90;72.90
7046;DHT22;3564;53.326;10.356;2023-03-01T15:34:08;20.40;72.90
7046;DHT22;3564;53.326;10.356;2023-03-01T15:36:41;19.80;73.10
7046;DHT22;3564;53.326;10.356;2023-03-01T15:42:04;18.60;74.60
7046;DHT22;3564;53.326;10.356;2023-03-01T15:44:34;18.00;75.50
7046;DHT22;3564;53.326;10.356;2023-03-01T15:47:00;17.50;76.20
7046;DHT22;3564;53.326;10.356;2023-03-01T15:49:38;17.10;77.10
7046;DHT22;3564;53.326;10.356;2023-03-01T15:52:18;16.90;78.00
7046;DHT22;3564;53.326;10.356;2023-03-01T15:54:45;16.70;78.20
7046;DHT22;3564;53.326;10.356;2023-03-01T15:57:14;16.70;78.30
7046;DHT22;3564;53.326;10.356;2023-03-01T15:59:40;16.60;78.30
7046;DHT22;3564;53.326;10.356;2023-03-01T16:02:11;16.50;78.80
7046;DHT22;3564;53.326;10.356;2023-03-01T16:04:41;16.30;79.10
7046;DHT22;3564;53.326;10.356;2023-03-01T16:07:09;16.10;79.50
7046;DHT22;3564;53.326;10.356;2023-03-01T16:09:36;15.80;79.60
7046;DHT22;3564;53.326;10.356;2023-03-01T16:12:02;15.60;79.40
7046;DHT22;3564;53.326;10.356;2023-03-01T16:14:28;15.40;79.50
7046;DHT22;3564;53.326;10.356;2023-03-01T16:16:54;15.10;79.60
7046;DHT22;3564;53.326;10.356;2023-03-01T16:19:19;14.90;79.70
7046;DHT22;3564;53.326;10.356;2023-03-01T16:21:45;14.70;80.00
7046;DHT22;3564;53.326;10.356;2023-03-01T16:24:12;14.50;80.30
7046;DHT22;3564;53.326;10.356;2023-03-01T16:26:38;14.30;80.90
7046;DHT22;3564;53.326;10.356;2023-03-01T16:29:05;14.10;81.30
7046;DHT22;3564;53.326;10.356;2023-03-01T16:31:30;13.90;82.00
7046;DHT22;3564;53.326;10.356;2023-03-01T16:33:59;13.80;81.80
7046;DHT22;3564;53.326;10.356;2023-03-01T16:36:26;13.60;82.30
7046;DHT22;3564;53.326;10.356;2023-03-01T16:38:54;13.50;82.60
7046;DHT22;3564;53.326;10.356;2023-03-01T16:41:22;13.30;82.90
7046;DHT22;3564;53.326;10.356;2023-03-01T16:43:49;13.20;83.50
7046;DHT22;3564;53.326;10.356;2023-03-01T16:46:20;13.00;83.50
7046;DHT22;3564;53.326;10.356;2023-03-01T16:48:47;12.80;84.00
7046;DHT22;3564;53.326;10.356;2023-03-01T16:51:12;12.70;84.90
7046;DHT22;3564;53.326;10.356;2023-03-01T16:53:38;12.60;85.50
7046;DHT22;3564;53.326;10.356;2023-03-01T16:56:07;12.40;86.10
7046;DHT22;3564;53.326;10.356;2023-03-01T16:58:34;12.30;86.70
7046;DHT22;3564;53.326;10.356;2023-03-01T17:01:05;12.30;98.00
7046;DHT22;3564;53.326;10.356;2023-03-01T17:03:31;12.10;94.20
7046;DHT22;3564;53.326;10.356;2023-03-01T17:06:01;12.00;91.70
7046;DHT22;3564;53.326;10.356;2023-03-01T17:08:26;11.90;90.10
7046;DHT22;3564;53.326;10.356;2023-03-01T17:10:52;11.70;87.70
7046;DHT22;3564;53.326;10.356;2023-03-01T17:13:17;11.70;87.80
7046;DHT22;3564;53.326;10.356;2023-03-01T17:15:43;11.60;91.20
7046;DHT22;3564;53.326;10.356;2023-03-01T17:18:09;11.50;90.30
7046;DHT22;3564;53.326;10.356;2023-03-01T17:20:35;11.40;90.80
7046;DHT22;3564;53.326;10.356;2023-03-01T17:23:01;11.30;91.00
7046;DHT22;3564;53.326;10.356;2023-03-01T17:25:27;11.20;90.80
7046;DHT22;3564;53.326;10.356;2023-03-01T17:27:54;11.20;91.00
7046;DHT22;3564;53.326;10.356;2023-03-01T17:30:20;11.10;90.60
7046;DHT22;3564;53.326;10.356;2023-03-01T17:32:46;11.00;89.90
7046;DHT22;3564;53.326;10.356;2023-03-01T17:35:12;11.00;89.90
7046;DHT22;3564;53.326;10.356;2023-03-01T17:37:39;10.90;90.30
7046;DHT22;3564;53.326;10.356;2023-03-01T17:40:11;10.80;90.70
7046;DHT22;3564;53.326;10.356;2023-03-01T17:42:36;10.80;91.10
7046;DHT22;3564;53.326;10.356;2023-03-01T17:45:02;10.70;92.00
7046;DHT22;3564;53.326;10.356;2023-03-01T17:47:28;10.70;93.80
7046;DHT22;3564;53.326;10.356;2023-03-01T17:49:53;10.70;94.10
7046;DHT22;3564;53.326;10.356;2023-03-01T17:52:20;10.70;92.20
7046;DHT22;3564;53.326;10.356;2023-03-01T17:54:48;10.60;91.60
7046;DHT22;3564;53.326;10.356;2023-03-01T17:57:14;10.60;90.20
7046;DHT22;3564;53.326;10.356;2023-03-01T17:59:39;10.60;90.50
7046;DHT22;3564;53.326;10.356;2023-03-01T18:02:05;10.60;90.80
7046;DHT22;3564;53.326;10.356;2023-03-01T18:04:30;10.60;91.00
7046;DHT22;3564;53.326;10.356;2023-03-01T18:06:56;10.50;91.20
7046;DHT22;3564;53.326;10.356;2023-03-01T18:09:25;10.50;91.50
7046;DHT22;3564;53.326;10.356;2023-03-01T18:11:51;10.40;91.50